sensor_id;sensor_type;location;lat;lon;timestamp;pressure;altitude;pressure_sealevel;temperature;humidity
73267;BME280;61495;53.400;7.608;2023-05-07T00:00:15;101901.06;;;11.10;88.64
73267;BME280;61495;53.400;7.608;2023-05-07T00:02:43;101898.00;;;11.13;88.63
73267;BME280;61495;53.400;7.608;2023-05-07T00:05:16;101889.28;;;11.11;88.97
73267;BME280;61495;53.400;7.608;2023-05-07T00:07:41;101898.06;;;11.05;88.69
73267;BME280;61495;53.400;7.608;2023-05-07T00:10:07;101887.72;;;11.02;88.95
73267;BME280;61495;53.400;7.608;2023-05-07T00:12:33;101898.06;;;11.05;88.55
73267;BME280;61495;53.400;7.608;2023-05-07T00:15:05;101892.72;;;11.05;88.77
73267;BME280;61495;53.400;7.608;2023-05-07T00:17:31;101898.75;;;11.07;87.96
73267;BME280;61495;53.400;7.608;2023-05-07T00:19:56;101890.75;;;10.99;89.50
73267;BME280;61495;53.400;7.608;2023-05-07T00:22:21;101893.44;;;10.99;89.12
73267;BME280;61495;53.400;7.608;2023-05-07T00:24:47;101888.75;;;11.01;88.86
73267;BME280;61495;53.400;7.608;2023-05-07T00:27:12;101902.53;;;10.98;88.95
73267;BME280;61495;53.400;7.608;2023-05-07T00:29:38;101894.47;;;10.98;89.12
73267;BME280;61495;53.400;7.608;2023-05-07T00:32:04;101901.59;;;10.91;89.34
73267;BME280;61495;53.400;7.608;2023-05-07T00:34:29;101886.69;;;10.88;88.67
73267;BME280;61495;53.400;7.608;2023-05-07T00:36:55;101888.09;;;10.99;88.43
73267;BME280;61495;53.400;7.608;2023-05-07T00:39:20;101885.84;;;10.88;89.65
73267;BME280;61495;53.400;7.608;2023-05-07T00:41:45;101880.88;;;10.85;89.95
73267;BME280;61495;53.400;7.608;2023-05-07T00:44:11;101880.22;;;10.83;89.04
73267;BME280;61495;53.400;7.608;2023-05-07T00:46:37;101883.28;;;10.80;90.08
73267;BME280;61495;53.400;7.608;2023-05-07T00:49:02;101889.94;;;10.84;89.60
73267;BME280;61495;53.400;7.608;2023-05-07T00:51:28;101882.25;;;10.81;89.46
73267;BME280;61495;53.400;7.608;2023-05-07T00:53:54;101893.25;;;10.86;89.22
73267;BME280;61495;53.400;7.608;2023-05-07T00:56:23;101885.03;;;10.87;88.87
73267;BME280;61495;53.400;7.608;2023-05-07T00:58:49;101891.94;;;10.82;89.73
73267;BME280;61495;53.400;7.608;2023-05-07T01:01:14;101889.28;;;10.82;89.56
73267;BME280;61495;53.400;7.608;2023-05-07T01:03:42;101888.63;;;10.80;89.61
73267;BME280;61495;53.400;7.608;2023-05-07T01:06:07;101893.91;;;10.88;88.72
73267;BME280;61495;53.400;7.608;2023-05-07T01:08:35;101886.31;;;10.77;89.57
73267;BME280;61495;53.400;7.608;2023-05-07T01:11:00;101894.47;;;10.83;89.22
73267;BME280;61495;53.400;7.608;2023-05-07T01:13:27;101889.94;;;10.84;89.17
73267;BME280;61495;53.400;7.608;2023-05-07T01:15:52;101891.94;;;10.82;89.90
73267;BME280;61495;53.400;7.608;2023-05-07T01:18:18;101885.75;;;10.81;89.35
73267;BME280;61495;53.400;7.608;2023-05-07T01:20:44;101884.47;;;10.77;89.33
73267;BME280;61495;53.400;7.608;2023-05-07T01:23:10;101889.00;;;10.77;90.35
73267;BME280;61495;53.400;7.608;2023-05-07T01:25:36;101888.16;;;10.76;89.37
73267;BME280;61495;53.400;7.608;2023-05-07T01:28:01;101888.25;;;10.68;90.91
73267;BME280;61495;53.400;7.608;2023-05-07T01:30:27;101873.81;;;10.69;89.92
73267;BME280;61495;53.400;7.608;2023-05-07T01:32:58;101885.72;;;10.67;90.15
73267;BME280;61495;53.400;7.608;2023-05-07T01:35:30;101883.25;;;10.65;90.26
73267;BME280;61495;53.400;7.608;2023-05-07T01:37:57;101884.63;;;10.61;90.51
73267;BME280;61495;53.400;7.608;2023-05-07T01:40:24;101886.16;;;10.55;90.85
73267;BME280;61495;53.400;7.608;2023-05-07T01:42:51;101888.78;;;10.64;90.23
73267;BME280;61495;53.400;7.608;2023-05-07T01:45:17;101878.78;;;10.57;90.33
73267;BME280;61495;53.400;7.608;2023-05-07T01:47:43;101881.09;;;10.60;90.15
73267;BME280;61495;53.400;7.608;2023-05-07T01:50:09;101887.28;;;10.61;90.32
73267;BME280;61495;53.400;7.608;2023-05-07T01:52:36;101901.25;;;10.56;90.83
73267;BME280;61495;53.400;7.608;2023-05-07T01:55:02;101887.50;;;10.59;89.57
73267;BME280;61495;53.400;7.608;2023-05-07T01:57:28;101893.66;;;10.60;90.01
73267;BME280;61495;53.400;7.608;2023-05-07T01:59:53;101905.22;;;10.60;90.38
73267;BME280;61495;53.400;7.608;2023-05-07T02:02:19;101879.84;;;10.48;90.95
73267;BME280;61495;53.400;7.608;2023-05-07T02:04:44;101884.06;;;10.51;90.60
73267;BME280;61495;53.400;7.608;2023-05-07T02:07:09;101886.53;;;10.52;90.31
73267;BME280;61495;53.400;7.608;2023-05-07T02:09:35;101890.28;;;10.43;90.79
73267;BME280;61495;53.400;7.608;2023-05-07T02:12:00;101889.94;;;10.46;91.06
73267;BME280;61495;53.400;7.608;2023-05-07T02:14:26;101880.06;;;10.47;90.67
73267;BME280;61495;53.400;7.608;2023-05-07T02:16:51;101891.78;;;10.46;90.92
73267;BME280;61495;53.400;7.608;2023-05-07T02:19:17;101891.59;;;10.47;90.23
73267;BME280;61495;53.400;7.608;2023-05-07T02:21:43;101894.75;;;10.51;90.02
73267;BME280;61495;53.400;7.608;2023-05-07T02:24:08;101897.44;;;10.51;89.88
73267;BME280;61495;53.400;7.608;2023-05-07T02:26:34;101894.66;;;10.44;90.62
73267;BME280;61495;53.400;7.608;2023-05-07T02:28:59;101897.59;;;10.49;90.27
73267;BME280;61495;53.400;7.608;2023-05-07T02:31:25;101891.28;;;10.42;90.67
73267;BME280;61495;53.400;7.608;2023-05-07T02:33:55;101894.53;;;10.38;91.08
73267;BME280;61495;53.400;7.608;2023-05-07T02:36:20;101886.66;;;10.36;89.55
73267;BME280;61495;53.400;7.608;2023-05-07T02:38:46;101897.38;;;10.36;90.41
73267;BME280;61495;53.400;7.608;2023-05-07T02:41:11;101890.53;;;10.34;89.48
73267;BME280;61495;53.400;7.608;2023-05-07T02:43:36;101899.34;;;10.42;89.54
73267;BME280;61495;53.400;7.608;2023-05-07T02:46:06;101903.56;;;10.37;90.23
73267;BME280;61495;53.400;7.608;2023-05-07T02:48:32;101903.75;;;10.35;90.24
73267;BME280;61495;53.400;7.608;2023-05-07T02:50:59;101899.41;;;10.34;90.12
73267;BME280;61495;53.400;7.608;2023-05-07T02:53:25;101901.94;;;10.28;90.30
73267;BME280;61495;53.400;7.608;2023-05-07T02:55:58;101905.41;;;10.36;89.78
73267;BME280;61495;53.400;7.608;2023-05-07T02:58:24;101903.13;;;10.33;89.77
73267;BME280;61495;53.400;7.608;2023-05-07T03:00:50;101901.59;;;10.31;90.76
73267;BME280;61495;53.400;7.608;2023-05-07T03:03:25;101902.44;;;10.31;90.30
73267;BME280;61495;53.400;7.608;2023-05-07T03:05:50;101900.13;;;10.28;90.65
73267;BME280;61495;53.400;7.608;2023-05-07T03:08:16;101897.66;;;10.19;90.76
73267;BME280;61495;53.400;7.608;2023-05-07T03:10:42;101906.66;;;10.26;89.96
73267;BME280;61495;53.400;7.608;2023-05-07T03:13:07;101897.78;;;10.25;90.41
73267;BME280;61495;53.400;7.608;2023-05-07T03:15:33;101897.16;;;10.23;90.34
73267;BME280;61495;53.400;7.608;2023-05-07T03:17:58;101899.00;;;10.23;90.23
73267;BME280;61495;53.400;7.608;2023-05-07T03:20:23;101900.47;;;10.25;90.69
73267;BME280;61495;53.400;7.608;2023-05-07T03:22:49;101897.78;;;10.25;90.21
73267;BME280;61495;53.400;7.608;2023-05-07T03:25:14;101898.34;;;10.21;90.41
73267;BME280;61495;53.400;7.608;2023-05-07T03:27:40;101885.81;;;10.13;89.88
73267;BME280;61495;53.400;7.608;2023-05-07T03:30:08;101898.88;;;10.16;89.67
73267;BME280;61495;53.400;7.608;2023-05-07T03:32:34;101894.88;;;10.12;90.46
73267;BME280;61495;53.400;7.608;2023-05-07T03:35:03;101891.50;;;10.10;90.60
73267;BME280;61495;53.400;7.608;2023-05-07T03:37:29;101896.41;;;10.07;90.02
73267;BME280;61495;53.400;7.608;2023-05-07T03:39:54;101889.72;;;10.02;90.29
73267;BME280;61495;53.400;7.608;2023-05-07T03:42:20;101887.69;;;10.04;89.89
73267;BME280;61495;53.400;7.608;2023-05-07T03:44:45;101885.91;;;9.97;90.03
73267;BME280;61495;53.400;7.608;2023-05-07T03:47:10;101892.47;;;9.94;90.32
73267;BME280;61495;53.400;7.608;2023-05-07T03:49:36;101892.13;;;9.97;90.49
73267;BME280;61495;53.400;7.608;2023-05-07T03:52:02;101880.09;;;9.93;89.94
73267;BME280;61495;53.400;7.608;2023-05-07T03:54:27;101876.50;;;10.01;89.82
73267;BME280;61495;53.400;7.608;2023-05-07T03:56:52;101878.06;;;9.95;90.06
73267;BME280;61495;53.400;7.608;2023-05-07T03:59:18;101891.28;;;9.97;90.38
73267;BME280;61495;53.400;7.608;2023-05-07T04:01:43;101875.56;;;9.94;90.63
73267;BME280;61495;53.400;7.608;2023-05-07T04:04:14;101892.81;;;9.91;91.60
73267;BME280;61495;53.400;7.608;2023-05-07T04:06:42;101887.91;;;9.95;90.91
73267;BME280;61495;53.400;7.608;2023-05-07T04:09:07;101895.94;;;9.95;90.51
73267;BME280;61495;53.400;7.608;2023-05-07T04:11:33;101884.94;;;9.90;90.24
73267;BME280;61495;53.400;7.608;2023-05-07T04:13:58;101892.97;;;9.90;90.46
73267;BME280;61495;53.400;7.608;2023-05-07T04:16:24;101898.38;;;9.82;91.21
73267;BME280;61495;53.400;7.608;2023-05-07T04:18:49;101902.38;;;9.86;90.20
73267;BME280;61495;53.400;7.608;2023-05-07T04:21:19;101902.56;;;9.84;91.26
73267;BME280;61495;53.400;7.608;2023-05-07T04:23:46;101907.19;;;9.90;90.83
73267;BME280;61495;53.400;7.608;2023-05-07T04:26:11;101906.06;;;9.85;91.03
73267;BME280;61495;53.400;7.608;2023-05-07T04:28:38;101911.22;;;9.86;90.87
73267;BME280;61495;53.400;7.608;2023-05-07T04:31:04;101914.94;;;9.85;90.79
73267;BME280;61495;53.400;7.608;2023-05-07T04:33:29;101903.88;;;9.88;90.82
73267;BME280;61495;53.400;7.608;2023-05-07T04:35:55;101903.38;;;9.85;91.01
73267;BME280;61495;53.400;7.608;2023-05-07T04:38:20;101911.41;;;9.85;91.49
73267;BME280;61495;53.400;7.608;2023-05-07T04:40:46;101904.22;;;9.85;91.12
73267;BME280;61495;53.400;7.608;2023-05-07T04:43:12;101900.78;;;9.77;91.85
73267;BME280;61495;53.400;7.608;2023-05-07T04:45:38;101899.09;;;9.76;92.05
73267;BME280;61495;53.400;7.608;2023-05-07T04:48:06;101899.28;;;9.66;92.23
73267;BME280;61495;53.400;7.608;2023-05-07T04:50:31;101901.94;;;9.74;91.49
73267;BME280;61495;53.400;7.608;2023-05-07T04:52:57;101911.16;;;9.72;91.56
73267;BME280;61495;53.400;7.608;2023-05-07T04:55:22;101911.81;;;9.74;91.69
73267;BME280;61495;53.400;7.608;2023-05-07T04:57:47;101915.16;;;9.76;91.18
73267;BME280;61495;53.400;7.608;2023-05-07T05:00:13;101919.31;;;9.78;91.00
73267;BME280;61495;53.400;7.608;2023-05-07T05:02:44;101922.19;;;9.77;90.92
73267;BME280;61495;53.400;7.608;2023-05-07T05:05:10;101927.72;;;9.67;91.12
73267;BME280;61495;53.400;7.608;2023-05-07T05:07:35;101935.56;;;9.69;91.40
73267;BME280;61495;53.400;7.608;2023-05-07T05:10:01;101936.91;;;9.73;89.96
73267;BME280;61495;53.400;7.608;2023-05-07T05:12:28;101926.19;;;9.73;90.58
73267;BME280;61495;53.400;7.608;2023-05-07T05:14:54;101941.13;;;9.67;91.05
73267;BME280;61495;53.400;7.608;2023-05-07T05:17:19;101946.28;;;9.69;90.38
73267;BME280;61495;53.400;7.608;2023-05-07T05:19:44;101944.94;;;9.73;90.31
73267;BME280;61495;53.400;7.608;2023-05-07T05:22:10;101946.78;;;9.72;90.21
73267;BME280;61495;53.400;7.608;2023-05-07T05:24:35;101947.59;;;9.73;90.78
73267;BME280;61495;53.400;7.608;2023-05-07T05:27:00;101953.81;;;9.65;91.57
73267;BME280;61495;53.400;7.608;2023-05-07T05:29:27;101954.00;;;9.64;91.29
73267;BME280;61495;53.400;7.608;2023-05-07T05:31:52;101958.34;;;9.65;91.04
73267;BME280;61495;53.400;7.608;2023-05-07T05:34:17;101953.66;;;9.67;90.84
73267;BME280;61495;53.400;7.608;2023-05-07T05:36:45;101957.66;;;9.63;91.54
73267;BME280;61495;53.400;7.608;2023-05-07T05:39:10;101965.34;;;9.66;90.86
73267;BME280;61495;53.400;7.608;2023-05-07T05:41:35;101972.06;;;9.62;91.72
73267;BME280;61495;53.400;7.608;2023-05-07T05:44:01;101963.38;;;9.60;91.90
73267;BME280;61495;53.400;7.608;2023-05-07T05:46:26;101964.06;;;9.54;92.70
73267;BME280;61495;53.400;7.608;2023-05-07T05:48:51;101975.44;;;9.56;93.06
73267;BME280;61495;53.400;7.608;2023-05-07T05:51:17;101977.44;;;9.62;92.07
73267;BME280;61495;53.400;7.608;2023-05-07T05:53:42;101970.75;;;9.58;92.18
73267;BME280;61495;53.400;7.608;2023-05-07T05:56:08;101971.03;;;9.63;91.94
73267;BME280;61495;53.400;7.608;2023-05-07T05:58:33;101974.91;;;9.60;92.26
73267;BME280;61495;53.400;7.608;2023-05-07T06:00:59;101976.59;;;9.61;91.78
73267;BME280;61495;53.400;7.608;2023-05-07T06:03:24;101976.94;;;9.58;92.37
73267;BME280;61495;53.400;7.608;2023-05-07T06:05:50;101970.09;;;9.56;92.55
73267;BME280;61495;53.400;7.608;2023-05-07T06:08:15;101976.09;;;9.58;92.49
73267;BME280;61495;53.400;7.608;2023-05-07T06:10:41;101971.72;;;9.65;91.65
73267;BME280;61495;53.400;7.608;2023-05-07T06:13:07;101972.75;;;9.56;92.66
73267;BME280;61495;53.400;7.608;2023-05-07T06:15:32;101980.78;;;9.56;92.86
73267;BME280;61495;53.400;7.608;2023-05-07T06:17:58;101975.59;;;9.54;92.22
73267;BME280;61495;53.400;7.608;2023-05-07T06:20:23;101990.28;;;9.66;92.06
73267;BME280;61495;53.400;7.608;2023-05-07T06:22:48;101988.47;;;9.59;92.50
73267;BME280;61495;53.400;7.608;2023-05-07T06:25:14;101997.16;;;9.61;92.64
73267;BME280;61495;53.400;7.608;2023-05-07T06:27:40;101999.50;;;9.56;92.84
73267;BME280;61495;53.400;7.608;2023-05-07T06:30:06;101998.69;;;9.55;92.79
73267;BME280;61495;53.400;7.608;2023-05-07T06:32:31;101992.16;;;9.58;92.18
73267;BME280;61495;53.400;7.608;2023-05-07T06:34:57;101990.63;;;9.63;91.92
73267;BME280;61495;53.400;7.608;2023-05-07T06:37:22;101997.50;;;9.58;93.00
73267;BME280;61495;53.400;7.608;2023-05-07T06:39:47;101997.16;;;9.61;92.69
73267;BME280;61495;53.400;7.608;2023-05-07T06:42:13;102004.00;;;9.63;92.45
73267;BME280;61495;53.400;7.608;2023-05-07T06:44:38;102005.84;;;9.63;92.59
73267;BME280;61495;53.400;7.608;2023-05-07T06:47:04;102001.81;;;9.67;91.92
73267;BME280;61495;53.400;7.608;2023-05-07T06:49:30;102000.13;;;9.66;92.70
73267;BME280;61495;53.400;7.608;2023-05-07T06:51:56;101998.50;;;9.65;92.46
73267;BME280;61495;53.400;7.608;2023-05-07T06:54:22;101994.28;;;9.62;92.53
73267;BME280;61495;53.400;7.608;2023-05-07T06:56:48;102000.81;;;9.68;92.23
73267;BME280;61495;53.400;7.608;2023-05-07T06:59:13;101987.59;;;9.66;91.82
73267;BME280;61495;53.400;7.608;2023-05-07T07:01:38;102001.47;;;9.70;93.14
73267;BME280;61495;53.400;7.608;2023-05-07T07:04:04;102010.50;;;9.69;92.68
73267;BME280;61495;53.400;7.608;2023-05-07T07:06:29;101996.81;;;9.64;93.17
73267;BME280;61495;53.400;7.608;2023-05-07T07:08:57;101999.13;;;9.67;93.50
73267;BME280;61495;53.400;7.608;2023-05-07T07:11:22;102002.16;;;9.64;93.84
73267;BME280;61495;53.400;7.608;2023-05-07T07:13:48;101998.00;;;9.61;94.17
73267;BME280;61495;53.400;7.608;2023-05-07T07:16:13;102002.84;;;9.58;94.40
73267;BME280;61495;53.400;7.608;2023-05-07T07:18:39;102007.53;;;9.56;95.20
73267;BME280;61495;53.400;7.608;2023-05-07T07:21:05;101994.84;;;9.49;95.20
73267;BME280;61495;53.400;7.608;2023-05-07T07:23:30;102008.00;;;9.59;95.27
73267;BME280;61495;53.400;7.608;2023-05-07T07:25:56;102004.53;;;9.59;95.07
73267;BME280;61495;53.400;7.608;2023-05-07T07:28:21;101993.81;;;9.59;95.31
73267;BME280;61495;53.400;7.608;2023-05-07T07:30:47;102008.69;;;9.61;94.95
73267;BME280;61495;53.400;7.608;2023-05-07T07:33:12;102008.69;;;9.61;95.42
73267;BME280;61495;53.400;7.608;2023-05-07T07:35:38;102000.66;;;9.61;94.76
73267;BME280;61495;53.400;7.608;2023-05-07T07:38:03;102014.53;;;9.65;95.47
73267;BME280;61495;53.400;7.608;2023-05-07T07:40:28;102013.16;;;9.69;94.41
73267;BME280;61495;53.400;7.608;2023-05-07T07:42:54;102012.66;;;9.73;94.60
73267;BME280;61495;53.400;7.608;2023-05-07T07:45:20;102016.84;;;9.76;95.16
73267;BME280;61495;53.400;7.608;2023-05-07T07:47:45;102014.16;;;9.76;95.15
73267;BME280;61495;53.400;7.608;2023-05-07T07:50:10;102020.16;;;9.78;95.20
73267;BME280;61495;53.400;7.608;2023-05-07T07:52:36;102018.19;;;9.80;94.82
73267;BME280;61495;53.400;7.608;2023-05-07T07:55:01;102013.13;;;9.85;95.54
73267;BME280;61495;53.400;7.608;2023-05-07T07:57:27;102007.94;;;9.83;95.80
73267;BME280;61495;53.400;7.608;2023-05-07T07:59:52;102005.09;;;9.85;96.04
73267;BME280;61495;53.400;7.608;2023-05-07T08:02:18;102014.78;;;9.94;95.81
73267;BME280;61495;53.400;7.608;2023-05-07T08:04:43;102016.41;;;9.95;95.83
73267;BME280;61495;53.400;7.608;2023-05-07T08:07:10;102012.59;;;9.97;96.18
73267;BME280;61495;53.400;7.608;2023-05-07T08:09:37;102012.03;;;10.02;95.68
73267;BME280;61495;53.400;7.608;2023-05-07T08:12:03;102001.53;;;10.00;95.25
73267;BME280;61495;53.400;7.608;2023-05-07T08:14:29;102004.06;;;9.94;96.12
73267;BME280;61495;53.400;7.608;2023-05-07T08:16:55;102013.72;;;10.03;96.38
73267;BME280;61495;53.400;7.608;2023-05-07T08:19:20;102005.69;;;10.03;95.66
73267;BME280;61495;53.400;7.608;2023-05-07T08:21:46;102006.34;;;10.05;96.11
73267;BME280;61495;53.400;7.608;2023-05-07T08:24:15;102027.59;;;10.07;95.58
73267;BME280;61495;53.400;7.608;2023-05-07T08:26:41;102019.91;;;10.03;95.36
73267;BME280;61495;53.400;7.608;2023-05-07T08:29:07;102019.19;;;10.10;94.64
73267;BME280;61495;53.400;7.608;2023-05-07T08:31:32;102024.06;;;10.14;95.58
73267;BME280;61495;53.400;7.608;2023-05-07T08:33:58;102021.03;;;10.17;94.82
73267;BME280;61495;53.400;7.608;2023-05-07T08:36:24;102017.88;;;10.14;95.46
73267;BME280;61495;53.400;7.608;2023-05-07T08:38:50;102023.22;;;10.14;94.69
73267;BME280;61495;53.400;7.608;2023-05-07T08:41:17;102036.13;;;10.18;94.50
73267;BME280;61495;53.400;7.608;2023-05-07T08:43:47;102031.75;;;10.17;93.97
73267;BME280;61495;53.400;7.608;2023-05-07T08:46:17;102030.06;;;10.16;95.02
73267;BME280;61495;53.400;7.608;2023-05-07T08:48:44;102030.28;;;10.15;94.57
73267;BME280;61495;53.400;7.608;2023-05-07T08:51:12;102031.91;;;10.16;94.43
73267;BME280;61495;53.400;7.608;2023-05-07T08:53:40;102032.59;;;10.18;94.35
73267;BME280;61495;53.400;7.608;2023-05-07T08:56:08;102037.47;;;10.14;94.05
73267;BME280;61495;53.400;7.608;2023-05-07T08:58:34;102039.13;;;10.15;93.97
73267;BME280;61495;53.400;7.608;2023-05-07T09:01:04;102034.94;;;10.21;93.55
73267;BME280;61495;53.400;7.608;2023-05-07T09:03:32;102040.09;;;10.22;93.69
73267;BME280;61495;53.400;7.608;2023-05-07T09:05:58;102036.41;;;10.23;93.87
73267;BME280;61495;53.400;7.608;2023-05-07T09:08:27;102035.72;;;10.29;93.67
73267;BME280;61495;53.400;7.608;2023-05-07T09:10:52;102041.72;;;10.31;93.67
73267;BME280;61495;53.400;7.608;2023-05-07T09:13:19;102046.56;;;10.36;94.20
73267;BME280;61495;53.400;7.608;2023-05-07T09:15:44;102049.25;;;10.36;93.37
73267;BME280;61495;53.400;7.608;2023-05-07T09:18:10;102049.06;;;10.37;93.20
73267;BME280;61495;53.400;7.608;2023-05-07T09:20:36;102052.03;;;10.42;92.77
73267;BME280;61495;53.400;7.608;2023-05-07T09:23:02;102052.03;;;10.42;92.90
73267;BME280;61495;53.400;7.608;2023-05-07T09:25:29;102055.06;;;10.39;92.50
73267;BME280;61495;53.400;7.608;2023-05-07T09:27:54;102039.00;;;10.39;92.54
73267;BME280;61495;53.400;7.608;2023-05-07T09:30:20;102040.66;;;10.40;92.11
73267;BME280;61495;53.400;7.608;2023-05-07T09:32:46;102038.63;;;10.50;92.39
73267;BME280;61495;53.400;7.608;2023-05-07T09:35:15;102041.09;;;10.52;91.92
73267;BME280;61495;53.400;7.608;2023-05-07T09:37:46;102035.59;;;10.53;91.84
73267;BME280;61495;53.400;7.608;2023-05-07T09:40:38;102036.72;;;10.59;91.12
73267;BME280;61495;53.400;7.608;2023-05-07T09:43:11;102035.53;;;10.62;91.01
73267;BME280;61495;53.400;7.608;2023-05-07T09:45:38;102035.16;;;10.65;91.40
73267;BME280;61495;53.400;7.608;2023-05-07T09:48:05;102036.13;;;10.72;91.25
73267;BME280;61495;53.400;7.608;2023-05-07T09:50:44;102033.25;;;10.73;91.77
73267;BME280;61495;53.400;7.608;2023-05-07T09:53:14;102040.44;;;10.81;91.09
73267;BME280;61495;53.400;7.608;2023-05-07T09:55:40;102038.88;;;10.86;91.23
73267;BME280;61495;53.400;7.608;2023-05-07T09:58:06;102046.00;;;10.94;90.87
73267;BME280;61495;53.400;7.608;2023-05-07T10:00:32;102044.81;;;10.96;90.15
73267;BME280;61495;53.400;7.608;2023-05-07T10:02:58;102042.44;;;11.01;90.01
73267;BME280;61495;53.400;7.608;2023-05-07T10:05:26;102046.91;;;11.09;90.24
73267;BME280;61495;53.400;7.608;2023-05-07T10:07:52;102055.41;;;11.12;89.65
73267;BME280;61495;53.400;7.608;2023-05-07T10:10:18;102038.97;;;11.15;89.31
73267;BME280;61495;53.400;7.608;2023-05-07T10:12:44;102053.13;;;11.24;89.70
73267;BME280;61495;53.400;7.608;2023-05-07T10:15:11;102035.31;;;11.31;89.03
73267;BME280;61495;53.400;7.608;2023-05-07T10:17:38;102045.59;;;11.42;89.88
73267;BME280;61495;53.400;7.608;2023-05-07T10:20:04;102042.81;;;11.50;88.61
73267;BME280;61495;53.400;7.608;2023-05-07T10:22:34;102041.72;;;11.59;88.67
73267;BME280;61495;53.400;7.608;2023-05-07T10:25:03;102030.25;;;11.65;88.23
73267;BME280;61495;53.400;7.608;2023-05-07T10:27:32;102024.50;;;11.68;87.41
73267;BME280;61495;53.400;7.608;2023-05-07T10:35:02;102029.16;;;12.04;86.61
73267;BME280;61495;53.400;7.608;2023-05-07T10:37:28;102029.41;;;12.09;87.04
73267;BME280;61495;53.400;7.608;2023-05-07T10:39:54;102023.16;;;12.38;86.98
73267;BME280;61495;53.400;7.608;2023-05-07T10:42:20;102024.84;;;12.60;86.64
73267;BME280;61495;53.400;7.608;2023-05-07T10:44:45;102022.44;;;12.65;86.21
73267;BME280;61495;53.400;7.608;2023-05-07T10:47:14;102033.56;;;12.62;84.68
73267;BME280;61495;53.400;7.608;2023-05-07T10:52:13;102037.38;;;12.89;84.96
73267;BME280;61495;53.400;7.608;2023-05-07T10:54:39;102036.47;;;13.03;83.15
73267;BME280;61495;53.400;7.608;2023-05-07T10:57:34;102035.13;;;13.13;83.07
73267;BME280;61495;53.400;7.608;2023-05-07T11:00:03;102044.28;;;13.19;82.93
73267;BME280;61495;53.400;7.608;2023-05-07T11:03:04;102034.63;;;13.31;82.66
73267;BME280;61495;53.400;7.608;2023-05-07T11:05:32;102042.19;;;13.42;82.02
73267;BME280;61495;53.400;7.608;2023-05-07T11:08:01;102032.63;;;13.40;80.93
73267;BME280;61495;53.400;7.608;2023-05-07T11:13:18;102029.66;;;13.56;81.08
73267;BME280;61495;53.400;7.608;2023-05-07T11:15:45;102038.19;;;13.59;80.35
73267;BME280;61495;53.400;7.608;2023-05-07T11:18:13;102038.00;;;13.67;80.38
73267;BME280;61495;53.400;7.608;2023-05-07T11:26:07;102033.84;;;13.99;79.05
73267;BME280;61495;53.400;7.608;2023-05-07T11:28:43;102028.69;;;14.11;79.90
73267;BME280;61495;53.400;7.608;2023-05-07T11:31:09;102032.28;;;14.18;78.33
73267;BME280;61495;53.400;7.608;2023-05-07T11:33:38;102026.47;;;14.21;78.31
73267;BME280;61495;53.400;7.608;2023-05-07T11:36:04;102019.53;;;14.39;79.00
73267;BME280;61495;53.400;7.608;2023-05-07T11:38:30;102020.38;;;14.40;78.70
73267;BME280;61495;53.400;7.608;2023-05-07T11:40:58;102019.97;;;14.56;77.80
73267;BME280;61495;53.400;7.608;2023-05-07T11:43:27;102025.81;;;14.66;78.17
73267;BME280;61495;53.400;7.608;2023-05-07T11:45:53;102025.81;;;14.66;77.28
73267;BME280;61495;53.400;7.608;2023-05-07T11:48:20;102016.28;;;14.77;77.79
73267;BME280;61495;53.400;7.608;2023-05-07T11:53:16;102021.28;;;14.80;76.60
73267;BME280;61495;53.400;7.608;2023-05-07T11:55:42;102030.41;;;14.92;76.81
73267;BME280;61495;53.400;7.608;2023-05-07T11:58:10;102030.44;;;14.98;76.62
73267;BME280;61495;53.400;7.608;2023-05-07T12:00:36;102012.16;;;15.00;75.78
73267;BME280;61495;53.400;7.608;2023-05-07T12:03:04;102017.97;;;15.11;76.10
73267;BME280;61495;53.400;7.608;2023-05-07T12:05:30;102012.56;;;15.24;76.35
73267;BME280;61495;53.400;7.608;2023-05-07T12:07:57;102017.34;;;15.35;75.90
73267;BME280;61495;53.400;7.608;2023-05-07T12:10:22;102006.31;;;15.43;75.60
73267;BME280;61495;53.400;7.608;2023-05-07T12:12:50;102008.81;;;15.57;75.62
73267;BME280;61495;53.400;7.608;2023-05-07T12:15:16;102012.09;;;15.79;76.59
73267;BME280;61495;53.400;7.608;2023-05-07T12:17:42;102015.00;;;15.84;74.69
73267;BME280;61495;53.400;7.608;2023-05-07T12:20:08;102020.41;;;15.84;74.17
73267;BME280;61495;53.400;7.608;2023-05-07T12:22:35;102017.09;;;15.82;73.40
73267;BME280;61495;53.400;7.608;2023-05-07T12:25:01;102021.59;;;15.95;74.04
73267;BME280;61495;53.400;7.608;2023-05-07T12:27:27;102026.41;;;15.93;73.63
73267;BME280;61495;53.400;7.608;2023-05-07T12:29:52;102025.78;;;15.91;73.11
73267;BME280;61495;53.400;7.608;2023-05-07T12:32:19;102021.66;;;15.88;73.84
73267;BME280;61495;53.400;7.608;2023-05-07T12:34:51;102033.66;;;15.92;73.33
73267;BME280;61495;53.400;7.608;2023-05-07T12:37:16;102031.59;;;15.94;72.12
73267;BME280;61495;53.400;7.608;2023-05-07T12:39:49;102018.28;;;15.93;72.54
73267;BME280;61495;53.400;7.608;2023-05-07T12:42:15;102034.91;;;16.03;72.30
73267;BME280;61495;53.400;7.608;2023-05-07T12:44:43;102031.97;;;16.04;71.77
73267;BME280;61495;53.400;7.608;2023-05-07T12:47:10;102036.34;;;16.05;72.52
73267;BME280;61495;53.400;7.608;2023-05-07T12:49:35;102036.09;;;16.13;72.11
73267;BME280;61495;53.400;7.608;2023-05-07T12:52:04;102037.34;;;16.11;71.69
73267;BME280;61495;53.400;7.608;2023-05-07T12:54:31;102030.25;;;16.17;71.84
73267;BME280;61495;53.400;7.608;2023-05-07T12:57:04;102046.06;;;16.20;71.76
73267;BME280;61495;53.400;7.608;2023-05-07T13:01:58;102041.56;;;16.00;70.88
73267;BME280;61495;53.400;7.608;2023-05-07T13:04:24;102048.34;;;16.16;71.58
73267;BME280;61495;53.400;7.608;2023-05-07T13:06:50;102042.75;;;16.18;72.14
73267;BME280;61495;53.400;7.608;2023-05-07T13:09:15;102049.78;;;16.19;71.30